Time;durP1;ratioP1;P1;durP2;ratioP2;P2;SDS_P1;SDS_P2;PMS_P1;PMS_P2;Temp;Humidity;BMP_temperature;BMP_pressure;BME280_temperature;BME280_humidity;BME280_pressure;Samples;Min_cycle;Max_cycle;Signal;HPM_P1;HPM_P2
2022/10/09 00:00:10;;;;;;;8.43;2.67;;;;;;;;;;3383737;42;20095;-62
2022/10/09 00:02:41;;;;;;;7.68;3.17;;;;;;;;;;3381778;42;20087;-62
2022/10/09 00:05:12;;;;;;;7.55;2.88;;;;;;;;;;3383325;42;20553;-60
2022/10/09 00:07:43;;;;;;;10.70;3.20;;;;;;;;;;3382806;42;20107;-63
2022/10/09 00:10:15;;;;;;;9.93;3.50;;;;;;;;;;3383471;42;20098;-62
2022/10/09 00:12:46;;;;;;;9.73;3.07;;;;;;;;;;3383597;42;20099;-61
2022/10/09 00:15:17;;;;;;;9.43;3.10;;;;;;;;;;3387292;42;20181;-59
2022/10/09 00:17:48;;;;;;;9.77;3.22;;;;;;;;;;3376348;42;20098;-61
2022/10/09 00:20:19;;;;;;;10.20;2.80;;;;;;;;;;3383400;42;20087;-61
2022/10/09 00:22:50;;;;;;;10.25;3.22;;;;;;;;;;3389741;42;20189;-63
2022/10/09 00:25:22;;;;;;;9.53;3.10;;;;;;;;;;3386347;42;20636;-63
2022/10/09 00:27:53;;;;;;;11.43;3.25;;;;;;;;;;3382300;42;20182;-60
2022/10/09 00:30:24;;;;;;;8.43;2.60;;;;;;;;;;3383228;42;20153;-62
2022/10/09 00:32:55;;;;;;;9.05;3.40;;;;;;;;;;3388280;42;20091;-59
2022/10/09 00:35:26;;;;;;;10.73;3.22;;;;;;;;;;3385149;42;20561;-62
2022/10/09 00:37:57;;;;;;;8.87;3.53;;;;;;;;;;3383764;42;20083;-62
2022/10/09 00:40:29;;;;;;;10.15;3.40;;;;;;;;;;3380678;42;20134;-62
2022/10/09 00:43:00;;;;;;;8.57;2.55;;;;;;;;;;3381170;42;20095;-62
2022/10/09 00:45:31;;;;;;;7.68;2.72;;;;;;;;;;3378072;42;20099;-61
2022/10/09 00:48:04;;;;;;;6.70;2.60;;;;;;;;;;3385867;42;20097;-61
2022/10/09 00:50:48;;;;;;;8.53;2.97;;;;;;;;;;3382265;42;20150;-61
2022/10/09 00:53:20;;;;;;;7.90;2.53;;;;;;;;;;3391667;42;20086;-58
2022/10/09 00:55:52;;;;;;;7.90;2.58;;;;;;;;;;3368936;42;20086;-59
2022/10/09 00:58:23;;;;;;;8.48;2.70;;;;;;;;;;3388220;42;20099;-60
2022/10/09 01:00:54;;;;;;;8.60;2.90;;;;;;;;;;3381219;42;20158;-65
2022/10/09 01:03:25;;;;;;;8.17;3.10;;;;;;;;;;3381249;42;20240;-62
2022/10/09 01:06:05;;;;;;;11.50;3.08;;;;;;;;;;3379850;42;20095;-59
2022/10/09 01:08:47;;;;;;;8.95;3.00;;;;;;;;;;3383247;42;20563;-61
2022/10/09 01:11:40;;;;;;;10.07;2.85;;;;;;;;;;3379460;42;20083;-61
2022/10/09 01:14:16;;;;;;;10.52;3.05;;;;;;;;;;3375284;42;20206;-63
2022/10/09 01:16:53;;;;;;;10.83;2.80;;;;;;;;;;3383427;42;20102;-60
2022/10/09 01:19:45;;;;;;;8.05;2.78;;;;;;;;;;3369321;42;20144;-61
2022/10/09 01:22:34;;;;;;;8.18;2.60;;;;;;;;;;3380672;42;20088;-61
2022/10/09 01:25:06;;;;;;;8.88;3.00;;;;;;;;;;3382039;42;20704;-61
2022/10/09 01:27:37;;;;;;;8.00;2.85;;;;;;;;;;3381589;42;20103;-63
2022/10/09 01:30:09;;;;;;;11.57;2.93;;;;;;;;;;3368962;42;20138;-63
2022/10/09 01:32:42;;;;;;;7.47;2.55;;;;;;;;;;3378207;42;20167;-61
2022/10/09 01:35:14;;;;;;;9.13;2.95;;;;;;;;;;3371375;42;20142;-62
2022/10/09 01:37:45;;;;;;;16.73;3.60;;;;;;;;;;3383014;42;20553;-62
2022/10/09 01:40:16;;;;;;;8.82;2.83;;;;;;;;;;3368857;42;20090;-62
2022/10/09 01:42:47;;;;;;;10.93;3.37;;;;;;;;;;3375558;42;20545;-61
2022/10/09 01:45:18;;;;;;;8.15;3.10;;;;;;;;;;3380601;42;20102;-60
2022/10/09 01:47:50;;;;;;;8.63;2.65;;;;;;;;;;3383059;42;20156;-65
2022/10/09 01:50:32;;;;;;;9.70;3.05;;;;;;;;;;3376121;42;20101;-60
2022/10/09 01:53:05;;;;;;;8.60;3.17;;;;;;;;;;3381306;42;20091;-62
2022/10/09 01:55:53;;;;;;;10.50;2.83;;;;;;;;;;3382829;42;20103;-61
2022/10/09 01:58:40;;;;;;;9.63;2.58;;;;;;;;;;3381198;42;20095;-62
2022/10/09 02:01:13;;;;;;;7.53;3.05;;;;;;;;;;3376352;42;20521;-60
2022/10/09 02:03:46;;;;;;;7.53;2.90;;;;;;;;;;3382982;42;20086;-61
2022/10/09 02:06:18;;;;;;;13.02;3.42;;;;;;;;;;3371393;42;20099;-60
2022/10/09 02:08:50;;;;;;;13.57;3.43;;;;;;;;;;3384722;42;20157;-61
2022/10/09 02:11:21;;;;;;;11.35;3.63;;;;;;;;;;3376681;42;20091;-61
2022/10/09 02:13:53;;;;;;;10.00;3.25;;;;;;;;;;3361764;42;20103;-62
2022/10/09 02:16:47;;;;;;;9.02;3.00;;;;;;;;;;3374772;42;20102;-61
2022/10/09 02:19:26;;;;;;;13.55;3.35;;;;;;;;;;3371369;42;20075;-61
2022/10/09 02:22:12;;;;;;;10.83;3.40;;;;;;;;;;3385195;42;20089;-63
2022/10/09 02:24:43;;;;;;;8.80;3.08;;;;;;;;;;3391214;42;20172;-60
2022/10/09 02:27:14;;;;;;;7.40;3.00;;;;;;;;;;3376207;42;20086;-60
2022/10/09 02:29:45;;;;;;;9.23;3.15;;;;;;;;;;3382865;42;20161;-62
2022/10/09 02:32:16;;;;;;;9.27;3.30;;;;;;;;;;3388317;42;20571;-61
2022/10/09 02:34:48;;;;;;;7.87;2.97;;;;;;;;;;3384095;42;20094;-61
2022/10/09 02:37:19;;;;;;;8.88;2.63;;;;;;;;;;3380508;42;20107;-60
2022/10/09 02:39:50;;;;;;;11.20;2.65;;;;;;;;;;3382159;42;20095;-60
2022/10/09 02:42:21;;;;;;;9.05;3.20;;;;;;;;;;3384698;42;20102;-60
2022/10/09 02:44:52;;;;;;;8.00;2.80;;;;;;;;;;3391320;42;20106;-63
2022/10/09 02:47:23;;;;;;;9.00;2.90;;;;;;;;;;3383850;42;20087;-62
2022/10/09 02:49:55;;;;;;;8.10;3.05;;;;;;;;;;3382653;42;20132;-61
2022/10/09 02:52:27;;;;;;;9.85;3.53;;;;;;;;;;3388351;42;20087;-60
2022/10/09 02:54:58;;;;;;;9.65;3.17;;;;;;;;;;3379577;42;20596;-61
2022/10/09 02:57:29;;;;;;;11.00;3.75;;;;;;;;;;3390778;42;20168;-63
2022/10/09 03:00:00;;;;;;;8.90;3.47;;;;;;;;;;3377319;42;20117;-61
2022/10/09 03:02:31;;;;;;;12.57;3.63;;;;;;;;;;3384285;42;20083;-62
2022/10/09 03:05:03;;;;;;;10.82;3.80;;;;;;;;;;3388035;42;20560;-63
2022/10/09 03:07:34;;;;;;;9.32;3.50;;;;;;;;;;3384872;42;20091;-62
2022/10/09 03:10:05;;;;;;;11.35;4.00;;;;;;;;;;3384918;42;20499;-66
2022/10/09 03:12:37;;;;;;;9.97;3.80;;;;;;;;;;3386679;42;20553;-62
2022/10/09 03:15:08;;;;;;;10.75;3.90;;;;;;;;;;3383600;42;20095;-61
2022/10/09 03:17:39;;;;;;;10.65;3.83;;;;;;;;;;3383808;42;20898;-61
2022/10/09 03:20:11;;;;;;;11.60;4.07;;;;;;;;;;3381187;42;20087;-63
2022/10/09 03:22:42;;;;;;;9.75;3.65;;;;;;;;;;3390815;42;20074;-62
2022/10/09 03:25:13;;;;;;;10.63;4.10;;;;;;;;;;3387640;42;20101;-62
2022/10/09 03:27:44;;;;;;;15.93;3.45;;;;;;;;;;3381442;42;20151;-60
2022/10/09 03:30:15;;;;;;;9.43;3.63;;;;;;;;;;3383791;42;20508;-60
2022/10/09 03:32:47;;;;;;;11.18;3.60;;;;;;;;;;3385373;42;20555;-65
2022/10/09 03:35:18;;;;;;;13.10;3.70;;;;;;;;;;3383689;42;20550;-61
2022/10/09 03:37:49;;;;;;;10.17;3.70;;;;;;;;;;3380924;42;20138;-60
2022/10/09 03:40:20;;;;;;;9.13;3.80;;;;;;;;;;3391127;42;20101;-62
2022/10/09 03:42:51;;;;;;;8.15;3.20;;;;;;;;;;3385071;42;20094;-63
2022/10/09 03:45:22;;;;;;;7.55;3.00;;;;;;;;;;3388980;42;20851;-62
2022/10/09 03:47:53;;;;;;;11.93;3.20;;;;;;;;;;3386482;42;20090;-62
2022/10/09 03:50:24;;;;;;;7.93;3.27;;;;;;;;;;3387695;42;20578;-62
2022/10/09 03:52:56;;;;;;;8.32;2.83;;;;;;;;;;3391078;42;20091;-62
2022/10/09 03:55:27;;;;;;;9.00;3.40;;;;;;;;;;3388967;42;20087;-61
2022/10/09 03:57:58;;;;;;;7.88;2.97;;;;;;;;;;3382591;42;20088;-60
2022/10/09 04:00:29;;;;;;;8.80;3.67;;;;;;;;;;3380807;42;20087;-63
2022/10/09 04:03:00;;;;;;;7.83;3.37;;;;;;;;;;3387463;42;20130;-62
2022/10/09 04:05:33;;;;;;;9.50;3.42;;;;;;;;;;3376741;42;20145;-61
2022/10/09 04:08:04;;;;;;;9.30;3.33;;;;;;;;;;3380653;42;20141;-62
2022/10/09 04:10:35;;;;;;;9.57;3.45;;;;;;;;;;3388357;42;20098;-61
2022/10/09 04:13:06;;;;;;;9.35;3.22;;;;;;;;;;3388268;42;20153;-63
2022/10/09 04:15:37;;;;;;;7.57;3.30;;;;;;;;;;3386360;42;20111;-63
2022/10/09 04:18:08;;;;;;;10.02;3.55;;;;;;;;;;3390551;42;20095;-63
2022/10/09 04:20:47;;;;;;;7.32;3.08;;;;;;;;;;3383700;42;20079;-63
2022/10/09 04:23:21;;;;;;;7.35;3.40;;;;;;;;;;3382035;42;20161;-61
2022/10/09 04:25:54;;;;;;;8.38;3.10;;;;;;;;;;3390567;42;20190;-62
2022/10/09 04:28:26;;;;;;;8.23;3.30;;;;;;;;;;3380464;42;20110;-61
2022/10/09 04:30:57;;;;;;;9.15;3.50;;;;;;;;;;3377716;42;20146;-63
2022/10/09 04:33:29;;;;;;;8.45;3.42;;;;;;;;;;3387776;42;20109;-64
2022/10/09 04:36:00;;;;;;;8.65;3.30;;;;;;;;;;3383719;42;20106;-60
2022/10/09 04:38:31;;;;;;;10.15;3.20;;;;;;;;;;3383095;42;20205;-63
2022/10/09 04:41:04;;;;;;;10.80;3.60;;;;;;;;;;3386097;42;20150;-62
2022/10/09 04:43:35;;;;;;;10.93;3.28;;;;;;;;;;3383636;42;20221;-62
2022/10/09 04:46:07;;;;;;;10.40;3.35;;;;;;;;;;3387250;42;20091;-62
2022/10/09 04:48:43;;;;;;;7.85;3.60;;;;;;;;;;3379462;42;20205;-62
2022/10/09 04:51:15;;;;;;;11.60;3.47;;;;;;;;;;3369427;42;20105;-62
2022/10/09 04:53:46;;;;;;;7.70;3.17;;;;;;;;;;3375654;42;20090;-61
2022/10/09 04:56:19;;;;;;;10.23;3.72;;;;;;;;;;3378232;42;20731;-63
2022/10/09 04:58:50;;;;;;;8.07;3.50;;;;;;;;;;3381231;42;20578;-62
2022/10/09 05:01:23;;;;;;;9.07;3.40;;;;;;;;;;3378658;42;21087;-60
2022/10/09 05:03:54;;;;;;;9.93;3.70;;;;;;;;;;3377915;42;20095;-61
2022/10/09 05:06:25;;;;;;;9.73;3.53;;;;;;;;;;3380573;42;20129;-62
2022/10/09 05:08:57;;;;;;;7.60;3.63;;;;;;;;;;3380824;42;20243;-60
2022/10/09 05:11:28;;;;;;;8.10;3.40;;;;;;;;;;3378893;42;20572;-62
2022/10/09 05:13:59;;;;;;;8.15;3.53;;;;;;;;;;3379588;42;20102;-62
2022/10/09 05:16:31;;;;;;;9.45;3.38;;;;;;;;;;3379024;42;20177;-61
2022/10/09 05:19:02;;;;;;;8.33;3.23;;;;;;;;;;3377755;42;20106;-62
2022/10/09 05:21:35;;;;;;;8.52;3.40;;;;;;;;;;3377407;42;20102;-61
2022/10/09 05:24:06;;;;;;;8.90;3.42;;;;;;;;;;3377145;42;20087;-63
2022/10/09 05:26:37;;;;;;;9.07;3.58;;;;;;;;;;3385112;42;20098;-62
2022/10/09 05:29:09;;;;;;;10.27;3.60;;;;;;;;;;3380504;42;20087;-63
2022/10/09 05:31:41;;;;;;;9.23;3.40;;;;;;;;;;3380651;42;20588;-62
2022/10/09 05:34:13;;;;;;;9.23;3.85;;;;;;;;;;3382563;42;20143;-65
2022/10/09 05:36:44;;;;;;;7.97;3.30;;;;;;;;;;3386965;42;20146;-62
2022/10/09 05:39:15;;;;;;;8.98;3.40;;;;;;;;;;3378443;42;20095;-61
2022/10/09 05:41:46;;;;;;;8.00;3.55;;;;;;;;;;3382612;42;20099;-62
2022/10/09 05:44:17;;;;;;;8.13;3.50;;;;;;;;;;3382945;42;20095;-64
2022/10/09 05:46:49;;;;;;;9.80;3.42;;;;;;;;;;3382538;42;20150;-63
2022/10/09 05:49:20;;;;;;;9.93;3.47;;;;;;;;;;3379504;42;20121;-63
2022/10/09 05:51:52;;;;;;;8.82;3.45;;;;;;;;;;3380531;42;20092;-63
2022/10/09 05:54:23;;;;;;;10.80;3.92;;;;;;;;;;3386680;42;20145;-63
2022/10/09 05:56:54;;;;;;;11.20;3.20;;;;;;;;;;3386424;42;20099;-64
2022/10/09 05:59:25;;;;;;;8.73;3.35;;;;;;;;;;3382899;42;20118;-64
2022/10/09 06:01:57;;;;;;;8.38;3.20;;;;;;;;;;3382583;42;20118;-61
2022/10/09 06:04:29;;;;;;;10.25;3.40;;;;;;;;;;3386759;42;20103;-64
2022/10/09 06:07:00;;;;;;;10.07;3.58;;;;;;;;;;3387532;42;20162;-62
2022/10/09 06:09:31;;;;;;;7.87;3.10;;;;;;;;;;3382247;42;20133;-61
2022/10/09 06:12:02;;;;;;;7.13;3.00;;;;;;;;;;3382251;42;20099;-62
2022/10/09 06:14:33;;;;;;;7.25;3.13;;;;;;;;;;3373597;42;20138;-65
2022/10/09 06:17:04;;;;;;;7.95;2.97;;;;;;;;;;3381671;42;20150;-63
2022/10/09 06:19:36;;;;;;;7.57;2.75;;;;;;;;;;3385155;42;20151;-64
2022/10/09 06:22:07;;;;;;;9.77;3.13;;;;;;;;;;3384304;42;20142;-60
2022/10/09 06:24:38;;;;;;;7.55;3.05;;;;;;;;;;3382302;42;20155;-62
2022/10/09 06:27:11;;;;;;;7.95;2.70;;;;;;;;;;3384224;42;20654;-64
2022/10/09 06:29:43;;;;;;;9.48;2.67;;;;;;;;;;3378973;42;20601;-62
2022/10/09 06:32:14;;;;;;;9.05;2.90;;;;;;;;;;3376860;42;20134;-62
2022/10/09 06:34:45;;;;;;;9.97;2.50;;;;;;;;;;3389701;42;20103;-63
2022/10/09 06:37:16;;;;;;;7.57;2.70;;;;;;;;;;3382337;42;20169;-61
2022/10/09 06:39:47;;;;;;;8.18;2.83;;;;;;;;;;3386037;42;20754;-63
2022/10/09 06:42:18;;;;;;;9.50;2.60;;;;;;;;;;3379245;42;20577;-64
2022/10/09 06:44:49;;;;;;;8.27;2.70;;;;;;;;;;3379512;42;20205;-60
2022/10/09 06:47:21;;;;;;;7.03;2.17;;;;;;;;;;3386877;42;20146;-64
2022/10/09 06:49:52;;;;;;;7.78;2.67;;;;;;;;;;3380425;42;20138;-62
2022/10/09 06:52:23;;;;;;;7.70;2.35;;;;;;;;;;3385703;42;20142;-65
2022/10/09 06:54:54;;;;;;;6.38;2.33;;;;;;;;;;3388062;42;20138;-62
2022/10/09 06:57:25;;;;;;;7.45;2.45;;;;;;;;;;3380971;42;20665;-63
2022/10/09 06:59:56;;;;;;;6.80;2.20;;;;;;;;;;3387939;42;20106;-63
2022/10/09 07:02:27;;;;;;;7.20;2.40;;;;;;;;;;3384047;42;20091;-63
2022/10/09 07:04:58;;;;;;;7.07;2.20;;;;;;;;;;3380240;42;20164;-61
2022/10/09 07:07:30;;;;;;;8.95;2.15;;;;;;;;;;3383647;42;20099;-66
2022/10/09 07:10:01;;;;;;;7.88;2.40;;;;;;;;;;3387701;42;20099;-64
2022/10/09 07:12:35;;;;;;;8.53;2.47;;;;;;;;;;3378295;42;20106;-63
2022/10/09 07:15:07;;;;;;;8.43;2.90;;;;;;;;;;3374842;42;20109;-63
2022/10/09 07:17:38;;;;;;;7.82;2.50;;;;;;;;;;3383065;42;20082;-62
2022/10/09 07:20:09;;;;;;;7.07;2.38;;;;;;;;;;3374818;42;20183;-62
2022/10/09 07:22:41;;;;;;;7.82;2.63;;;;;;;;;;3379684;42;20500;-64
2022/10/09 07:25:12;;;;;;;9.53;2.87;;;;;;;;;;3383437;42;20919;-64
2022/10/09 07:27:43;;;;;;;7.57;2.72;;;;;;;;;;3380493;42;20592;-62
2022/10/09 07:30:15;;;;;;;10.88;2.85;;;;;;;;;;3383867;42;20248;-63
2022/10/09 07:32:47;;;;;;;8.73;2.80;;;;;;;;;;3385133;42;20098;-62
2022/10/09 07:35:18;;;;;;;8.40;2.75;;;;;;;;;;3388416;42;20121;-63
2022/10/09 07:37:50;;;;;;;9.80;2.77;;;;;;;;;;3387521;42;20087;-66
2022/10/09 07:40:21;;;;;;;8.48;2.80;;;;;;;;;;3379969;42;20170;-66
2022/10/09 07:42:53;;;;;;;8.52;2.45;;;;;;;;;;3380932;42;20685;-65
2022/10/09 07:45:24;;;;;;;8.40;2.83;;;;;;;;;;3390486;42;20221;-63
2022/10/09 07:47:55;;;;;;;7.45;2.70;;;;;;;;;;3384284;42;20273;-66
2022/10/09 07:50:26;;;;;;;6.97;2.60;;;;;;;;;;3382986;42;20631;-65
2022/10/09 07:52:57;;;;;;;10.30;2.80;;;;;;;;;;3383058;42;20097;-65
2022/10/09 07:55:29;;;;;;;7.78;2.50;;;;;;;;;;3380791;42;20125;-61
2022/10/09 07:58:00;;;;;;;10.23;3.03;;;;;;;;;;3378809;42;20103;-62
2022/10/09 08:00:31;;;;;;;7.20;2.78;;;;;;;;;;3382612;42;20568;-63
2022/10/09 08:03:03;;;;;;;7.13;2.50;;;;;;;;;;3383027;42;20087;-64
2022/10/09 08:05:34;;;;;;;11.98;3.00;;;;;;;;;;3385217;42;20087;-62
2022/10/09 08:08:05;;;;;;;7.75;2.45;;;;;;;;;;3387723;42;20086;-64
2022/10/09 08:10:36;;;;;;;9.60;2.53;;;;;;;;;;3387333;42;20180;-62
2022/10/09 08:13:07;;;;;;;6.70;2.47;;;;;;;;;;3384700;42;20094;-63
2022/10/09 08:15:40;;;;;;;8.37;2.50;;;;;;;;;;3385998;42;20645;-62
2022/10/09 08:18:11;;;;;;;6.63;2.03;;;;;;;;;;3382807;42;20099;-65
2022/10/09 08:20:42;;;;;;;7.88;2.25;;;;;;;;;;3382982;42;20106;-63
2022/10/09 08:23:13;;;;;;;7.28;2.55;;;;;;;;;;3383131;42;20226;-62
2022/10/09 08:25:46;;;;;;;7.63;2.38;;;;;;;;;;3382958;42;20308;-63
2022/10/09 08:28:17;;;;;;;8.70;2.20;;;;;;;;;;3386690;42;20500;-61
2022/10/09 08:30:48;;;;;;;7.90;2.20;;;;;;;;;;3382426;42;20546;-61
2022/10/09 08:33:20;;;;;;;6.05;2.15;;;;;;;;;;3382468;42;20659;-62
2022/10/09 08:35:52;;;;;;;13.00;2.85;;;;;;;;;;3387025;42;20630;-62
2022/10/09 08:38:23;;;;;;;7.25;2.33;;;;;;;;;;3381374;42;20104;-64
2022/10/09 08:40:58;;;;;;;8.63;2.70;;;;;;;;;;3386958;42;20111;-64
2022/10/09 08:43:31;;;;;;;7.60;2.33;;;;;;;;;;3367452;42;20139;-65
2022/10/09 08:46:04;;;;;;;7.55;2.30;;;;;;;;;;3382469;42;20178;-63
2022/10/09 08:48:38;;;;;;;8.45;2.22;;;;;;;;;;3383621;42;20168;-65
2022/10/09 08:51:18;;;;;;;7.25;2.13;;;;;;;;;;3372827;42;20083;-63
2022/10/09 08:53:53;;;;;;;6.33;1.97;;;;;;;;;;3375723;42;20193;-63
2022/10/09 08:56:24;;;;;;;9.75;2.47;;;;;;;;;;3370761;42;20553;-65
2022/10/09 08:58:55;;;;;;;10.07;2.80;;;;;;;;;;3368381;42;20083;-62
2022/10/09 09:01:40;;;;;;;6.65;2.70;;;;;;;;;;3374327;42;20087;-62
2022/10/09 09:04:24;;;;;;;8.48;2.60;;;;;;;;;;3380439;42;20097;-62
2022/10/09 09:07:23;;;;;;;9.53;2.57;;;;;;;;;;3375657;42;20095;-61
2022/10/09 09:10:05;;;;;;;7.15;2.28;;;;;;;;;;3382290;42;20079;-63
2022/10/09 09:12:42;;;;;;;7.85;2.58;;;;;;;;;;3382472;42;20087;-61
2022/10/09 09:15:22;;;;;;;10.15;2.30;;;;;;;;;;3374947;42;20082;-63
2022/10/09 09:17:59;;;;;;;7.05;2.47;;;;;;;;;;3375930;42;20153;-62
2022/10/09 09:20:54;;;;;;;9.60;2.60;;;;;;;;;;3375922;42;20089;-61
2022/10/09 09:23:27;;;;;;;7.68;2.40;;;;;;;;;;3386683;42;20091;-62
2022/10/09 09:25:58;;;;;;;6.82;2.53;;;;;;;;;;3382598;42;20125;-63
2022/10/09 09:28:32;;;;;;;10.38;2.67;;;;;;;;;;3382066;42;20130;-63
2022/10/09 09:31:25;;;;;;;6.82;2.47;;;;;;;;;;3386161;42;20130;-62
2022/10/09 09:34:10;;;;;;;7.43;2.47;;;;;;;;;;3372162;42;20097;-62
2022/10/09 09:36:53;;;;;;;6.65;2.70;;;;;;;;;;3382348;42;20553;-62
2022/10/09 09:39:26;;;;;;;6.93;2.63;;;;;;;;;;3382330;42;20137;-61
2022/10/09 09:42:00;;;;;;;8.43;2.45;;;;;;;;;;3381927;42;20688;-62
2022/10/09 09:44:31;;;;;;;7.22;2.50;;;;;;;;;;3379811;42;20087;-64
2022/10/09 09:47:02;;;;;;;8.00;2.50;;;;;;;;;;3381732;42;20082;-62
2022/10/09 09:49:33;;;;;;;7.57;2.40;;;;;;;;;;3374896;42;20552;-61
2022/10/09 09:52:05;;;;;;;7.30;2.60;;;;;;;;;;3382084;42;20557;-62
2022/10/09 09:54:38;;;;;;;6.95;2.28;;;;;;;;;;3376537;42;20087;-63
2022/10/09 09:57:10;;;;;;;7.50;2.63;;;;;;;;;;3374596;42;20099;-62
2022/10/09 09:59:42;;;;;;;6.97;2.60;;;;;;;;;;3380001;42;20095;-64
2022/10/09 10:02:13;;;;;;;10.95;2.45;;;;;;;;;;3382054;42;20098;-62
2022/10/09 10:05:00;;;;;;;7.68;2.50;;;;;;;;;;3382309;42;20087;-59
2022/10/09 10:07:33;;;;;;;9.65;2.78;;;;;;;;;;3381380;42;20098;-63
2022/10/09 10:10:17;;;;;;;7.88;2.55;;;;;;;;;;3382185;42;20094;-62
2022/10/09 10:12:53;;;;;;;6.27;2.13;;;;;;;;;;3379148;42;20099;-63
2022/10/09 10:15:25;;;;;;;6.03;2.20;;;;;;;;;;3373470;42;20095;-63
2022/10/09 10:17:57;;;;;;;9.27;2.65;;;;;;;;;;3369734;42;20098;-63
2022/10/09 10:20:29;;;;;;;6.38;2.70;;;;;;;;;;3373031;42;20660;-64
2022/10/09 10:23:01;;;;;;;6.75;2.45;;;;;;;;;;3368807;42;20517;-63
2022/10/09 10:25:32;;;;;;;6.30;2.40;;;;;;;;;;3379756;42;20131;-63
2022/10/09 10:28:07;;;;;;;6.65;2.55;;;;;;;;;;3364334;42;20105;-63
2022/10/09 10:30:38;;;;;;;6.50;2.20;;;;;;;;;;3380767;42;20095;-62
2022/10/09 10:33:17;;;;;;;6.90;2.40;;;;;;;;;;3380266;42;20084;-64
2022/10/09 10:35:50;;;;;;;7.30;2.50;;;;;;;;;;3390718;42;20097;-61
2022/10/09 10:38:35;;;;;;;7.10;2.13;;;;;;;;;;3383173;42;20098;-63
2022/10/09 10:41:28;;;;;;;7.43;2.30;;;;;;;;;;3380814;42;20171;-65
2022/10/09 10:44:21;;;;;;;8.02;2.88;;;;;;;;;;3381330;42;20083;-63
2022/10/09 10:46:58;;;;;;;7.10;2.40;;;;;;;;;;3372589;42;20099;-61
2022/10/09 10:49:29;;;;;;;6.93;2.53;;;;;;;;;;3376446;42;20138;-62
2022/10/09 10:52:14;;;;;;;7.27;2.60;;;;;;;;;;3371190;42;20090;-62
2022/10/09 10:54:56;;;;;;;7.15;2.20;;;;;;;;;;3376575;42;20153;-62
2022/10/09 10:57:42;;;;;;;6.35;2.25;;;;;;;;;;3383723;42;20075;-62
2022/10/09 11:00:15;;;;;;;8.32;2.30;;;;;;;;;;3380584;42;20125;-63
2022/10/09 11:03:06;;;;;;;7.60;2.38;;;;;;;;;;3376540;42;20785;-63
2022/10/09 11:05:40;;;;;;;6.43;2.43;;;;;;;;;;3384462;42;20117;-63
2022/10/09 11:08:20;;;;;;;6.68;2.25;;;;;;;;;;3383274;42;20600;-62
2022/10/09 11:11:02;;;;;;;8.18;2.28;;;;;;;;;;3376312;42;20091;-64
2022/10/09 11:13:41;;;;;;;6.40;2.40;;;;;;;;;;3376082;42;20094;-63
2022/10/09 11:16:18;;;;;;;6.20;2.30;;;;;;;;;;3376218;42;20153;-62
2022/10/09 11:19:05;;;;;;;6.67;2.30;;;;;;;;;;3370329;42;20528;-63
2022/10/09 11:22:07;;;;;;;6.97;2.40;;;;;;;;;;3381906;42;20090;-64
2022/10/09 11:24:47;;;;;;;6.15;2.10;;;;;;;;;;3383432;42;20114;-64
2022/10/09 11:27:24;;;;;;;6.55;2.22;;;;;;;;;;3383558;42;20140;-63
2022/10/09 11:30:09;;;;;;;7.40;2.40;;;;;;;;;;3383837;42;20159;-64
2022/10/09 11:32:43;;;;;;;7.83;2.30;;;;;;;;;;3376310;42;20486;-64
2022/10/09 11:35:21;;;;;;;6.45;2.30;;;;;;;;;;3379702;42;20176;-64
2022/10/09 11:38:03;;;;;;;7.47;2.22;;;;;;;;;;3374536;42;20628;-63
2022/10/09 11:40:39;;;;;;;7.20;2.35;;;;;;;;;;3383544;42;20102;-64
2022/10/09 11:43:14;;;;;;;7.43;2.38;;;;;;;;;;3377826;42;20524;-63
2022/10/09 11:45:58;;;;;;;6.50;2.17;;;;;;;;;;3379882;42;20091;-64
2022/10/09 11:49:03;;;;;;;6.47;2.30;;;;;;;;;;3382109;42;20583;-67
2022/10/09 11:51:43;;;;;;;6.15;2.13;;;;;;;;;;3382640;42;20095;-62
2022/10/09 11:54:16;;;;;;;6.75;2.38;;;;;;;;;;3381187;42;20091;-62
2022/10/09 11:56:55;;;;;;;7.25;2.30;;;;;;;;;;3389594;42;20217;-61
2022/10/09 11:59:29;;;;;;;6.90;2.20;;;;;;;;;;3389362;42;20103;-62
2022/10/09 12:02:18;;;;;;;8.35;2.30;;;;;;;;;;3383879;42;20095;-62
2022/10/09 12:04:49;;;;;;;10.00;2.10;;;;;;;;;;3380391;42;20707;-62
2022/10/09 12:07:36;;;;;;;6.70;2.17;;;;;;;;;;3383972;42;20125;-64
2022/10/09 12:10:24;;;;;;;9.75;2.40;;;;;;;;;;3368605;42;20512;-66
2022/10/09 12:12:58;;;;;;;6.43;2.30;;;;;;;;;;3374227;42;20232;-62
2022/10/09 12:15:52;;;;;;;7.57;2.47;;;;;;;;;;3375449;42;20233;-62
2022/10/09 12:18:32;;;;;;;7.43;2.30;;;;;;;;;;3390066;42;20179;-63
2022/10/09 12:21:05;;;;;;;7.10;2.28;;;;;;;;;;3374019;42;20083;-66
2022/10/09 12:23:36;;;;;;;7.72;2.50;;;;;;;;;;3375722;42;20087;-62
2022/10/09 12:26:09;;;;;;;5.30;2.10;;;;;;;;;;3375936;42;20101;-63
2022/10/09 12:29:01;;;;;;;7.07;2.55;;;;;;;;;;3380951;42;20090;-65
2022/10/09 12:31:36;;;;;;;10.90;2.85;;;;;;;;;;3382100;42;20091;-63
2022/10/09 12:34:40;;;;;;;9.00;3.70;;;;;;;;;;3375729;42;20507;-63
2022/10/09 12:37:29;;;;;;;11.60;3.00;;;;;;;;;;3374962;42;20097;-63
2022/10/09 12:40:15;;;;;;;8.40;2.53;;;;;;;;;;3377939;42;20144;-65
2022/10/09 12:42:46;;;;;;;7.95;2.60;;;;;;;;;;3385071;42;20087;-65
2022/10/09 12:45:29;;;;;;;9.73;3.03;;;;;;;;;;3375997;42;20083;-61
2022/10/09 12:48:08;;;;;;;7.50;2.50;;;;;;;;;;3377922;42;20101;-63
2022/10/09 12:50:39;;;;;;;8.45;3.10;;;;;;;;;;3373374;42;20093;-63
2022/10/09 12:53:29;;;;;;;7.80;2.80;;;;;;;;;;3374949;42;20517;-65
2022/10/09 12:56:02;;;;;;;8.02;3.20;;;;;;;;;;3387095;42;20098;-63
2022/10/09 12:58:38;;;;;;;9.43;3.35;;;;;;;;;;3382546;42;20096;-61
2022/10/09 13:01:13;;;;;;;6.90;2.50;;;;;;;;;;3368839;42;20099;-64
2022/10/09 13:04:00;;;;;;;8.13;2.80;;;;;;;;;;3380578;42;20549;-66
2022/10/09 13:06:36;;;;;;;5.90;2.10;;;;;;;;;;3380097;42;20106;-62
2022/10/09 13:09:14;;;;;;;7.07;2.70;;;;;;;;;;3383096;42;20106;-63
2022/10/09 13:11:50;;;;;;;6.90;2.67;;;;;;;;;;3369186;42;20075;-65
2022/10/09 13:14:25;;;;;;;7.60;2.45;;;;;;;;;;3381378;42;20099;-62
2022/10/09 13:16:56;;;;;;;6.20;2.40;;;;;;;;;;3376215;42;20616;-62
2022/10/09 13:19:31;;;;;;;6.73;2.50;;;;;;;;;;3382640;42;20087;-63
2022/10/09 13:22:22;;;;;;;10.10;2.95;;;;;;;;;;3381865;42;20165;-63
2022/10/09 13:24:55;;;;;;;8.57;3.13;;;;;;;;;;3382486;42;20788;-63
2022/10/09 13:27:28;;;;;;;6.38;2.40;;;;;;;;;;3388056;42;20561;-63
2022/10/09 13:30:00;;;;;;;6.63;2.45;;;;;;;;;;3375512;42;20083;-64
2022/10/09 13:32:31;;;;;;;7.67;2.60;;;;;;;;;;3380131;42;20174;-64
2022/10/09 13:35:03;;;;;;;15.68;6.18;;;;;;;;;;3387405;42;20098;-64
2022/10/09 13:37:34;;;;;;;12.68;5.97;;;;;;;;;;3381992;42;20492;-63
2022/10/09 13:40:06;;;;;;;8.00;3.03;;;;;;;;;;3387521;42;20094;-62
2022/10/09 13:42:37;;;;;;;8.13;2.70;;;;;;;;;;3382439;42;20122;-62
2022/10/09 13:45:09;;;;;;;10.43;2.80;;;;;;;;;;3382193;42;20094;-62
2022/10/09 13:47:40;;;;;;;6.13;2.20;;;;;;;;;;3382414;42;20185;-63
2022/10/09 13:50:14;;;;;;;6.82;2.47;;;;;;;;;;3382681;42;20109;-64
2022/10/09 13:52:45;;;;;;;10.52;2.50;;;;;;;;;;3387949;42;20137;-64
2022/10/09 13:55:17;;;;;;;7.22;2.50;;;;;;;;;;3387652;42;20086;-65
2022/10/09 13:57:48;;;;;;;6.13;2.37;;;;;;;;;;3381046;42;20146;-64
2022/10/09 14:00:19;;;;;;;7.70;2.80;;;;;;;;;;3379114;42;20087;-63
2022/10/09 14:02:50;;;;;;;7.07;2.70;;;;;;;;;;3382299;42;20095;-63
2022/10/09 14:05:22;;;;;;;7.47;2.80;;;;;;;;;;3382010;42;20138;-66
2022/10/09 14:07:53;;;;;;;7.53;2.47;;;;;;;;;;3377796;42;20131;-63
2022/10/09 14:10:25;;;;;;;7.03;2.50;;;;;;;;;;3386027;42;20091;-63
2022/10/09 14:12:56;;;;;;;8.63;2.50;;;;;;;;;;3381091;42;20202;-65
2022/10/09 14:15:27;;;;;;;8.77;2.83;;;;;;;;;;3378002;42;20087;-66
2022/10/09 14:17:59;;;;;;;9.63;2.60;;;;;;;;;;3387223;42;20146;-65
2022/10/09 14:20:30;;;;;;;7.80;2.25;;;;;;;;;;3382383;42;20105;-63
2022/10/09 14:23:01;;;;;;;7.23;2.40;;;;;;;;;;3386109;42;20692;-67
2022/10/09 14:25:35;;;;;;;7.13;2.47;;;;;;;;;;3374812;42;20121;-61
2022/10/09 14:28:06;;;;;;;6.80;2.97;;;;;;;;;;3379693;42;20106;-64
2022/10/09 14:30:41;;;;;;;8.05;3.05;;;;;;;;;;3382662;42;20087;-65
2022/10/09 14:33:12;;;;;;;12.07;5.13;;;;;;;;;;3374843;42;20133;-65
2022/10/09 14:35:44;;;;;;;9.10;4.13;;;;;;;;;;3382179;42;20103;-65
2022/10/09 14:38:15;;;;;;;10.00;3.33;;;;;;;;;;3381899;42;20102;-61
2022/10/09 14:40:46;;;;;;;7.20;2.90;;;;;;;;;;3384550;42;20142;-62
2022/10/09 14:43:18;;;;;;;8.23;3.00;;;;;;;;;;3389104;42;20508;-67
2022/10/09 14:45:59;;;;;;;8.23;2.90;;;;;;;;;;3382228;42;20926;-65
2022/10/09 14:48:30;;;;;;;8.47;3.00;;;;;;;;;;3379128;42;20094;-63
2022/10/09 14:51:06;;;;;;;7.53;2.90;;;;;;;;;;3380124;42;20164;-63
2022/10/09 14:53:37;;;;;;;7.47;2.45;;;;;;;;;;3384489;42;20160;-63
2022/10/09 14:56:10;;;;;;;7.72;2.55;;;;;;;;;;3379669;42;20154;-64
2022/10/09 14:58:41;;;;;;;9.32;3.10;;;;;;;;;;3382151;42;20091;-62
2022/10/09 15:01:14;;;;;;;8.47;2.80;;;;;;;;;;3386789;42;20170;-63
2022/10/09 15:03:46;;;;;;;7.40;2.75;;;;;;;;;;3380446;42;20143;-65
2022/10/09 15:06:22;;;;;;;7.03;2.90;;;;;;;;;;3375271;42;20139;-66
2022/10/09 15:08:55;;;;;;;7.90;3.15;;;;;;;;;;3382053;42;20146;-63
2022/10/09 15:11:27;;;;;;;8.10;3.20;;;;;;;;;;3385767;42;20300;-63
2022/10/09 15:13:58;;;;;;;9.80;3.50;;;;;;;;;;3382370;42;20105;-64
2022/10/09 15:16:30;;;;;;;10.23;3.65;;;;;;;;;;3387725;42;20087;-61
2022/10/09 15:19:01;;;;;;;10.40;4.10;;;;;;;;;;3383647;42;20102;-64
2022/10/09 15:21:33;;;;;;;8.65;3.90;;;;;;;;;;3383237;42;20143;-63